Time,TemperatureF,DewpointF,PressureIn,WindDirection,WindDirectionDegrees,WindSpeedMPH,WindSpeedGustMPH,Humidity,HourlyPrecipIn,Conditions,Clouds,dailyrainin,SoftwareType,DateUTC
2013-02-28 00:02:00,32.0,28.0,-100.00,East,93,7.0,11.0,86,-99.99,,,-99.99,,2013-02-28 05:02:00,
2013-02-28 00:11:00,32.0,28.0,-100.00,ESE,107,5.0,11.0,86,-99.99,,,-99.99,,2013-02-28 05:11:00,
2013-02-28 00:22:00,32.0,28.0,-100.00,ESE,111,4.0,10.0,86,-99.99,,,-99.99,,2013-02-28 05:22:00,
2013-02-28 00:32:00,32.0,28.0,-100.00,NE,56,5.0,10.0,85,-99.99,,,-99.99,,2013-02-28 05:32:00,
2013-02-28 00:42:00,32.0,28.0,-100.00,ESE,116,4.0,10.0,85,-99.99,,,-99.99,,2013-02-28 05:42:00,
2013-02-28 00:52:00,32.0,28.0,-100.00,ESE,111,4.0,8.0,85,-99.99,,,-99.99,,2013-02-28 05:52:00,
2013-02-28 01:01:00,32.0,28.0,-100.00,East,83,3.0,8.0,86,-99.99,,,-99.99,,2013-02-28 06:01:00,
2013-02-28 01:11:00,31.0,28.0,-100.00,East,91,4.0,8.0,86,-99.99,,,-99.99,,2013-02-28 06:11:00,
2013-02-28 01:22:00,32.0,27.0,-100.00,ESE,118,7.0,10.0,82,-99.99,,,-99.99,,2013-02-28 06:22:00,
2013-02-28 01:32:00,32.0,27.0,-100.00,East,89,4.0,11.0,80,-99.99,,,-99.99,,2013-02-28 06:32:00,
2013-02-28 01:42:00,32.0,27.0,-100.00,East,90,6.0,11.0,80,-99.99,,,-99.99,,2013-02-28 06:42:00,
2013-02-28 01:52:00,32.0,27.0,-100.00,ESE,108,6.0,11.0,79,-99.99,,,-99.99,,2013-02-28 06:52:00,
2013-02-28 02:01:00,32.0,26.0,-100.00,ESE,103,5.0,13.0,78,-99.99,,,-99.99,,2013-02-28 07:01:00,
2013-02-28 02:11:00,32.0,26.0,-100.00,SE,139,5.0,13.0,76,-99.99,,,-99.99,,2013-02-28 07:11:00,
2013-02-28 02:22:00,33.0,26.0,-100.00,ESE,102,8.0,15.0,75,-99.99,,,-99.99,,2013-02-28 07:22:00,
2013-02-28 02:32:00,32.0,26.0,-100.00,SE,129,5.0,10.0,76,-99.99,,,-99.99,,2013-02-28 07:32:00,
2013-02-28 02:42:00,32.0,26.0,-100.00,ESE,112,2.0,6.0,79,-99.99,,,-99.99,,2013-02-28 07:42:00,
2013-02-28 02:51:00,32.0,27.0,-100.00,NE,52,1.0,4.0,81,-99.99,,,-99.99,,2013-02-28 07:51:00,
2013-02-28 03:01:00,32.0,27.0,-100.00,NE,38,1.0,4.0,82,-99.99,,,-99.99,,2013-02-28 08:01:00,
2013-02-28 03:11:00,31.0,27.0,-100.00,NE,42,0.0,2.0,82,-99.99,,,-99.99,,2013-02-28 08:11:00,
2013-02-28 03:22:00,31.0,27.0,-100.00,SW,234,1.0,2.0,82,-99.99,,,-99.99,,2013-02-28 08:22:00,
2013-02-28 03:32:00,31.0,27.0,-100.00,WSW,243,2.0,4.0,83,-99.99,,,-99.99,,2013-02-28 08:32:00,
2013-02-28 03:42:00,31.0,27.0,-100.00,East,98,2.0,4.0,84,-99.99,,,-99.99,,2013-02-28 08:42:00,
2013-02-28 03:52:00,31.0,27.0,-100.00,SSE,149,1.0,4.0,84,-99.99,,,-99.99,,2013-02-28 08:52:00,
2013-02-28 04:03:00,31.0,27.0,-100.00,SW,230,1.0,2.0,85,-99.99,,,-99.99,,2013-02-28 09:03:00,
2013-02-28 04:12:00,31.0,27.0,-100.00,South,175,1.0,2.0,85,-99.99,,,-99.99,,2013-02-28 09:12:00,
2013-02-28 04:22:00,31.0,27.0,-100.00,SSW,197,1.0,4.0,85,-99.99,,,-99.99,,2013-02-28 09:22:00,
2013-02-28 04:32:00,31.0,27.0,-100.00,South,177,1.0,2.0,87,-99.99,,,-99.99,,2013-02-28 09:32:00,
2013-02-28 04:42:00,30.0,27.0,-100.00,SW,223,1.0,4.0,88,-99.99,,,-99.99,,2013-02-28 09:42:00,
2013-02-28 04:52:00,30.0,27.0,-100.00,South,172,1.0,4.0,88,-99.99,,,-99.99,,2013-02-28 09:52:00,
2013-02-28 05:02:00,30.0,27.0,-100.00,SE,142,1.0,4.0,88,-99.99,,,-99.99,,2013-02-28 10:02:00,
2013-02-28 05:12:00,30.0,28.0,-100.00,WSW,239,1.0,2.0,89,-99.99,,,-99.99,,2013-02-28 10:12:00,
2013-02-28 05:22:00,30.0,28.0,-100.00,SSW,199,2.0,4.0,88,-99.99,,,-99.99,,2013-02-28 10:22:00,
2013-02-28 05:32:00,30.0,28.0,-100.00,South,177,2.0,4.0,90,-99.99,,,-99.99,,2013-02-28 10:32:00,
2013-02-28 05:42:00,30.0,28.0,-100.00,WSW,248,2.0,4.0,92,-99.99,,,-99.99,,2013-02-28 10:42:00,
2013-02-28 05:52:00,30.0,28.0,-100.00,SW,222,1.0,2.0,92,-99.99,,,-99.99,,2013-02-28 10:52:00,
2013-02-28 06:02:00,30.0,28.0,-100.00,West,271,1.0,2.0,92,-99.99,,,-99.99,,2013-02-28 11:02:00,
2013-02-28 06:11:00,30.0,28.0,-100.00,South,186,1.0,2.0,93,-99.99,,,-99.99,,2013-02-28 11:11:00,
2013-02-28 06:22:00,30.0,28.0,-100.00,West,268,0.0,2.0,93,-99.99,,,-99.99,,2013-02-28 11:22:00,
2013-02-28 06:32:00,30.0,28.0,-100.00,West,264,1.0,2.0,94,-99.99,,,-99.99,,2013-02-28 11:32:00,
2013-02-28 06:42:00,30.0,28.0,-100.00,SSW,200,1.0,2.0,95,-99.99,,,-99.99,,2013-02-28 11:42:00,
2013-02-28 06:52:00,30.0,29.0,-100.00,SW,235,2.0,4.0,95,-99.99,,,-99.99,,2013-02-28 11:52:00,
2013-02-28 07:02:00,30.0,29.0,-100.00,SW,215,3.0,4.0,96,-99.99,,,-99.99,,2013-02-28 12:02:00,
2013-02-28 07:12:00,30.0,29.0,-100.00,WSW,240,2.0,4.0,96,-99.99,,,-99.99,,2013-02-28 12:12:00,
2013-02-28 07:22:00,30.0,29.0,-100.00,WSW,253,2.0,2.0,95,-99.99,,,-99.99,,2013-02-28 12:22:00,
2013-02-28 07:32:00,30.0,29.0,-100.00,SSW,208,0.0,2.0,94,-99.99,,,-99.99,,2013-02-28 12:32:00,
2013-02-28 07:42:00,30.0,29.0,-100.00,ESE,114,0.0,2.0,94,-99.99,,,-99.99,,2013-02-28 12:42:00,
2013-02-28 07:52:00,31.0,29.0,-100.00,SSE,155,1.0,4.0,93,-99.99,,,-99.99,,2013-02-28 12:52:00,
2013-02-28 08:02:00,31.0,29.0,-100.00,East,100,2.0,4.0,93,-99.99,,,-99.99,,2013-02-28 13:02:00,
2013-02-28 08:12:00,31.0,29.0,-100.00,SW,219,1.0,4.0,93,-99.99,,,-99.99,,2013-02-28 13:12:00,
2013-02-28 08:22:00,31.0,29.0,-100.00,SE,127,1.0,2.0,92,-99.99,,,-99.99,,2013-02-28 13:22:00,
2013-02-28 08:32:00,32.0,29.0,-100.00,SSE,156,1.0,4.0,91,-99.99,,,-99.99,,2013-02-28 13:32:00,
2013-02-28 08:42:00,32.0,29.0,-100.00,South,181,3.0,6.0,87,-99.99,,,-99.99,,2013-02-28 13:42:00,
2013-02-28 08:52:00,33.0,29.0,-100.00,ESE,106,3.0,4.0,85,-99.99,,,-99.99,,2013-02-28 13:52:00,
2013-02-28 09:02:00,34.0,29.0,-100.00,South,178,4.0,6.0,81,-99.99,,,-99.99,,2013-02-28 14:02:00,
2013-02-28 09:11:00,34.0,29.0,-100.00,ESE,113,4.0,6.0,79,-99.99,,,-99.99,,2013-02-28 14:11:00,
2013-02-28 09:22:00,35.0,29.0,-100.00,ESE,115,4.0,8.0,78,-99.99,,,-99.99,,2013-02-28 14:22:00,
2013-02-28 09:32:00,34.0,29.0,-100.00,SE,144,5.0,8.0,79,-99.99,,,-99.99,,2013-02-28 14:32:00,
2013-02-28 09:42:00,35.0,29.0,-100.00,SSE,163,4.0,6.0,78,-99.99,,,-99.99,,2013-02-28 14:42:00,
2013-02-28 09:52:00,35.0,29.0,-100.00,SE,139,3.0,6.0,79,-99.99,,,-99.99,,2013-02-28 14:52:00,
2013-02-28 10:02:00,35.0,29.0,-100.00,SE,126,2.0,4.0,79,-99.99,,,-99.99,,2013-02-28 15:02:00,
2013-02-28 10:11:00,35.0,29.0,-100.00,SSE,168,3.0,6.0,77,-99.99,,,-99.99,,2013-02-28 15:11:00,
2013-02-28 10:22:00,35.0,29.0,-100.00,SE,138,2.0,4.0,77,-99.99,,,-99.99,,2013-02-28 15:22:00,
2013-02-28 10:32:00,38.0,29.0,-100.00,SSE,148,3.0,6.0,70,-99.99,,,-99.99,,2013-02-28 15:32:00,
2013-02-28 10:42:00,38.0,29.0,-100.00,SSE,148,3.0,6.0,70,-99.99,,,-99.99,,2013-02-28 15:42:00,
2013-02-28 10:52:00,38.0,30.0,-100.00,WSW,244,0.0,2.0,70,-99.99,,,-99.99,,2013-02-28 15:52:00,
2013-02-28 11:02:00,39.0,30.0,-100.00,SE,129,2.0,4.0,69,-99.99,,,-99.99,,2013-02-28 16:02:00,
2013-02-28 11:12:00,39.0,30.0,-100.00,ESE,117,3.0,6.0,70,-99.99,,,-99.99,,2013-02-28 16:12:00,
2013-02-28 11:22:00,38.0,30.0,-100.00,SE,146,2.0,4.0,71,-99.99,,,-99.99,,2013-02-28 16:22:00,
2013-02-28 11:32:00,38.0,30.0,-100.00,SSE,155,4.0,6.0,72,-99.99,,,-99.99,,2013-02-28 16:32:00,
2013-02-28 11:42:00,39.0,30.0,-100.00,SE,146,3.0,6.0,70,-99.99,,,-99.99,,2013-02-28 16:42:00,
2013-02-28 11:52:00,39.0,30.0,-100.00,NW,315,1.0,4.0,70,-99.99,,,-99.99,,2013-02-28 16:52:00,
2013-02-28 12:02:00,39.0,30.0,-100.00,ESE,123,3.0,6.0,70,-99.99,,,-99.99,,2013-02-28 17:02:00,
2013-02-28 12:12:00,40.0,31.0,-100.00,SSE,166,1.0,2.0,70,-99.99,,,-99.99,,2013-02-28 17:12:00,
2013-02-28 12:22:00,40.0,30.0,-100.00,SE,140,2.0,6.0,69,-99.99,,,-99.99,,2013-02-28 17:22:00,
2013-02-28 12:32:00,39.0,31.0,-100.00,ENE,68,2.0,4.0,70,-99.99,,,-99.99,,2013-02-28 17:32:00,
2013-02-28 12:42:00,39.0,30.0,-100.00,NE,34,3.0,6.0,70,-99.99,,,-99.99,,2013-02-28 17:42:00,
2013-02-28 12:52:00,40.0,30.0,-100.00,SE,143,2.0,4.0,68,-99.99,,,-99.99,,2013-02-28 17:52:00,
2013-02-28 13:02:00,40.0,30.0,-100.00,SE,143,2.0,4.0,68,-99.99,,,-99.99,,2013-02-28 18:02:00,
2013-02-28 13:12:00,41.0,30.0,-100.00,WSW,237,2.0,4.0,66,-99.99,,,-99.99,,2013-02-28 18:12:00,
2013-02-28 13:22:00,40.0,31.0,-100.00,SSW,208,2.0,6.0,67,-99.99,,,-99.99,,2013-02-28 18:22:00,
2013-02-28 13:32:00,42.0,31.0,-100.00,ESE,121,1.0,2.0,63,-99.99,,,-99.99,,2013-02-28 18:32:00,
2013-02-28 13:42:00,41.0,30.0,-100.00,South,171,2.0,4.0,65,-99.99,,,-99.99,,2013-02-28 18:42:00,
2013-02-28 13:52:00,41.0,30.0,-100.00,NW,317,0.0,2.0,64,-99.99,,,-99.99,,2013-02-28 18:52:00,
2013-02-28 14:02:00,42.0,30.0,-100.00,WNW,291,1.0,6.0,63,-99.99,,,-99.99,,2013-02-28 19:02:00,
2013-02-28 14:12:00,41.0,30.0,-100.00,North,0,1.0,4.0,64,-99.99,,,-99.99,,2013-02-28 19:12:00,
2013-02-28 14:22:00,42.0,30.0,-100.00,South,187,2.0,6.0,63,-99.99,,,-99.99,,2013-02-28 19:22:00,
2013-02-28 14:32:00,42.0,31.0,-100.00,ENE,61,2.0,6.0,64,-99.99,,,-99.99,,2013-02-28 19:32:00,
2013-02-28 14:42:00,42.0,31.0,-100.00,WSW,237,1.0,4.0,64,-99.99,,,-99.99,,2013-02-28 19:42:00,
2013-02-28 14:52:00,42.0,31.0,-100.00,NNE,26,0.0,2.0,64,-99.99,,,-99.99,,2013-02-28 19:52:00,
2013-02-28 15:01:00,42.0,31.0,-100.00,NW,324,1.0,4.0,65,-99.99,,,-99.99,,2013-02-28 20:01:00,
2013-02-28 15:12:00,41.0,31.0,-100.00,WNW,303,2.0,6.0,66,-99.99,,,-99.99,,2013-02-28 20:12:00,
2013-02-28 15:22:00,41.0,31.0,-100.00,West,276,1.0,4.0,66,-99.99,,,-99.99,,2013-02-28 20:22:00,
2013-02-28 15:32:00,41.0,31.0,-100.00,SSE,151,2.0,6.0,66,-99.99,,,-99.99,,2013-02-28 20:32:00,
2013-02-28 15:42:00,41.0,31.0,-100.00,NNW,328,0.0,2.0,66,-99.99,,,-99.99,,2013-02-28 20:42:00,
2013-02-28 15:52:00,41.0,31.0,-100.00,SE,131,5.0,10.0,68,-99.99,,,-99.99,,2013-02-28 20:52:00,
2013-02-28 16:02:00,40.0,32.0,-100.00,WNW,292,3.0,8.0,71,-99.99,,,-99.99,,2013-02-28 21:02:00,
2013-02-28 16:11:00,40.0,32.0,-100.00,SSW,206,4.0,8.0,72,-99.99,,,-99.99,,2013-02-28 21:11:00,
2013-02-28 16:22:00,40.0,32.0,-100.00,SSW,207,4.0,8.0,73,-99.99,,,-99.99,,2013-02-28 21:22:00,
2013-02-28 16:32:00,40.0,32.0,-100.00,West,265,3.0,6.0,73,-99.99,,,-99.99,,2013-02-28 21:32:00,
2013-02-28 16:42:00,40.0,32.0,-100.00,ESE,111,3.0,10.0,73,-99.99,,,-99.99,,2013-02-28 21:42:00,
2013-02-28 16:52:00,39.0,32.0,-100.00,SSW,194,3.0,8.0,73,-99.99,,,-99.99,,2013-02-28 21:52:00,
2013-02-28 17:01:00,39.0,32.0,-100.00,NNW,327,4.0,10.0,73,-99.99,,,-99.99,,2013-02-28 22:01:00,
2013-02-28 17:11:00,39.0,32.0,-100.00,SSE,159,3.0,8.0,74,-99.99,,,-99.99,,2013-02-28 22:11:00,
2013-02-28 17:22:00,39.0,31.0,-100.00,ESE,123,3.0,6.0,74,-99.99,,,-99.99,,2013-02-28 22:22:00,
2013-02-28 17:32:00,39.0,31.0,-100.00,South,179,3.0,6.0,74,-99.99,,,-99.99,,2013-02-28 22:32:00,
2013-02-28 17:42:00,39.0,31.0,-100.00,SSW,193,3.0,6.0,73,-99.99,,,-99.99,,2013-02-28 22:42:00,
2013-02-28 17:52:00,39.0,31.0,-100.00,SSW,208,2.0,6.0,74,-99.99,,,-99.99,,2013-02-28 22:52:00,
2013-02-28 18:01:00,39.0,31.0,-100.00,WSW,252,3.0,6.0,73,-99.99,,,-99.99,,2013-02-28 23:01:00,
2013-02-28 18:11:00,38.0,31.0,-100.00,SE,129,3.0,6.0,73,-99.99,,,-99.99,,2013-02-28 23:11:00,
2013-02-28 18:22:00,38.0,31.0,-100.00,ESE,110,3.0,8.0,74,-99.99,,,-99.99,,2013-02-28 23:22:00,
2013-02-28 18:32:00,38.0,31.0,-100.00,SSE,165,3.0,6.0,74,-99.99,,,-99.99,,2013-02-28 23:32:00,
2013-02-28 18:42:00,38.0,31.0,-100.00,East,92,3.0,8.0,75,-99.99,,,-99.99,,2013-02-28 23:42:00,
2013-02-28 18:52:00,38.0,31.0,-100.00,NE,38,4.0,8.0,76,-99.99,,,-99.99,,2013-02-28 23:52:00,
2013-02-28 19:02:00,37.0,31.0,-100.00,North,3,3.0,6.0,78,-99.99,,,-99.99,,2013-03-01 00:02:00,
2013-02-28 19:11:00,37.0,31.0,-100.00,SW,235,2.0,6.0,79,-99.99,,,-99.99,,2013-03-01 00:11:00,
2013-02-28 19:22:00,37.0,32.0,-100.00,SW,231,5.0,11.0,82,-99.99,,,-99.99,,2013-03-01 00:22:00,
2013-02-28 19:32:00,36.0,32.0,-100.00,WNW,300,3.0,6.0,84,-99.99,,,-99.99,,2013-03-01 00:32:00,
2013-02-28 19:42:00,36.0,32.0,-100.00,WNW,300,3.0,6.0,84,-99.99,,,-99.99,,2013-03-01 00:42:00,
2013-02-28 19:51:00,36.0,32.0,-100.00,ESE,111,1.0,4.0,86,-99.99,,,-99.99,,2013-03-01 00:51:00,
2013-02-28 20:01:00,36.0,32.0,-100.00,SSW,196,1.0,4.0,87,-99.99,,,-99.99,,2013-03-01 01:01:00,
2013-02-28 20:11:00,36.0,33.0,-100.00,ESE,104,2.0,6.0,88,-99.99,,,-99.99,,2013-03-01 01:11:00,
2013-02-28 20:22:00,35.0,33.0,-100.00,SSE,163,3.0,8.0,90,-99.99,,,-99.99,,2013-03-01 01:22:00,
2013-02-28 20:32:00,35.0,33.0,-100.00,SE,128,2.0,6.0,91,-99.99,,,-99.99,,2013-03-01 01:32:00,
2013-02-28 20:42:00,35.0,33.0,-100.00,SE,128,2.0,6.0,91,-99.99,,,-99.99,,2013-03-01 01:42:00,
2013-02-28 20:52:00,35.0,33.0,-100.00,SE,134,3.0,6.0,90,-99.99,,,-99.99,,2013-03-01 01:52:00,
2013-02-28 21:01:00,35.0,33.0,-100.00,SSE,167,3.0,6.0,90,-99.99,,,-99.99,,2013-03-01 02:01:00,
2013-02-28 21:11:00,35.0,32.0,-100.00,South,178,3.0,6.0,90,-99.99,,,-99.99,,2013-03-01 02:11:00,
2013-02-28 21:22:00,35.0,32.0,-100.00,SSE,150,4.0,6.0,90,-99.99,,,-99.99,,2013-03-01 02:22:00,
2013-02-28 21:32:00,34.0,32.0,-100.00,ESE,120,3.0,6.0,91,-99.99,,,-99.99,,2013-03-01 02:32:00,
2013-02-28 21:42:00,34.0,32.0,-100.00,SSE,166,3.0,8.0,91,-99.99,,,-99.99,,2013-03-01 02:42:00,
2013-02-28 21:52:00,34.0,32.0,-100.00,ESE,105,4.0,10.0,91,-99.99,,,-99.99,,2013-03-01 02:52:00,
2013-02-28 22:02:00,34.0,32.0,-100.00,ESE,105,4.0,10.0,91,-99.99,,,-99.99,,2013-03-01 03:02:00,
2013-02-28 22:12:00,34.0,32.0,-100.00,ESE,123,5.0,8.0,91,-99.99,,,-99.99,,2013-03-01 03:12:00,
2013-02-28 22:22:00,34.0,32.0,-100.00,ESE,123,5.0,8.0,91,-99.99,,,-99.99,,2013-03-01 03:22:00,
2013-02-28 22:32:00,34.0,32.0,-100.00,SSE,151,4.0,8.0,92,-99.99,,,-99.99,,2013-03-01 03:32:00,
2013-02-28 22:42:00,34.0,32.0,-100.00,SE,138,4.0,8.0,92,-99.99,,,-99.99,,2013-03-01 03:42:00,
2013-02-28 22:51:00,33.0,32.0,-100.00,SE,134,4.0,8.0,93,-99.99,,,-99.99,,2013-03-01 03:51:00,
2013-02-28 23:01:00,33.0,32.0,-100.00,SSE,162,4.0,8.0,93,-99.99,,,-99.99,,2013-03-01 04:01:00,
2013-02-28 23:12:00,33.0,32.0,-100.00,East,101,3.0,6.0,93,-99.99,,,-99.99,,2013-03-01 04:12:00,
2013-02-28 23:22:00,33.0,31.0,-100.00,WSW,253,4.0,6.0,93,-99.99,,,-99.99,,2013-03-01 04:22:00,
2013-02-28 23:32:00,33.0,31.0,-100.00,SW,234,4.0,8.0,93,-99.99,,,-99.99,,2013-03-01 04:32:00,
2013-02-28 23:42:00,33.0,31.0,-100.00,SSE,148,4.0,6.0,92,-99.99,,,-99.99,,2013-03-01 04:42:00,
2013-02-28 23:52:00,33.0,31.0,-100.00,East,86,4.0,8.0,92,-99.99,,,-99.99,,2013-03-01 04:52:00,